sensor_id;sensor_type;location;lat;lon;timestamp;temperature;humidity
53264;DHT22;39153;52.680;6.172;2023-08-06T00:00:19;15.20;99.90
53264;DHT22;39153;52.680;6.172;2023-08-06T00:02:44;15.20;99.90
53264;DHT22;39153;52.680;6.172;2023-08-06T00:05:10;15.10;99.90
53264;DHT22;39153;52.680;6.172;2023-08-06T00:07:36;14.90;99.90
53264;DHT22;39153;52.680;6.172;2023-08-06T00:10:02;14.80;99.90
53264;DHT22;39153;52.680;6.172;2023-08-06T00:12:27;15.10;99.90
53264;DHT22;39153;52.680;6.172;2023-08-06T00:14:53;15.10;99.90
53264;DHT22;39153;52.680;6.172;2023-08-06T00:17:19;14.90;99.90
53264;DHT22;39153;52.680;6.172;2023-08-06T00:19:45;14.80;99.90
53264;DHT22;39153;52.680;6.172;2023-08-06T00:22:11;14.80;99.90
53264;DHT22;39153;52.680;6.172;2023-08-06T00:24:36;15.00;99.90
53264;DHT22;39153;52.680;6.172;2023-08-06T00:27:03;15.00;99.90
53264;DHT22;39153;52.680;6.172;2023-08-06T00:29:28;14.80;99.90
53264;DHT22;39153;52.680;6.172;2023-08-06T00:31:54;14.80;99.90
53264;DHT22;39153;52.680;6.172;2023-08-06T00:34:20;15.00;99.90
53264;DHT22;39153;52.680;6.172;2023-08-06T00:36:46;14.80;99.90
53264;DHT22;39153;52.680;6.172;2023-08-06T00:39:11;14.90;99.90
53264;DHT22;39153;52.680;6.172;2023-08-06T00:41:37;15.00;99.90
53264;DHT22;39153;52.680;6.172;2023-08-06T00:44:03;14.80;99.90
53264;DHT22;39153;52.680;6.172;2023-08-06T00:46:30;14.80;99.90
53264;DHT22;39153;52.680;6.172;2023-08-06T00:48:56;14.80;99.90
53264;DHT22;39153;52.680;6.172;2023-08-06T00:51:22;14.80;99.90
53264;DHT22;39153;52.680;6.172;2023-08-06T00:53:49;14.80;99.90
53264;DHT22;39153;52.680;6.172;2023-08-06T00:56:15;14.80;99.90
53264;DHT22;39153;52.680;6.172;2023-08-06T00:58:41;15.00;99.90
53264;DHT22;39153;52.680;6.172;2023-08-06T01:01:07;14.70;99.90
53264;DHT22;39153;52.680;6.172;2023-08-06T01:03:33;14.70;99.90
53264;DHT22;39153;52.680;6.172;2023-08-06T01:06:00;14.90;99.90
53264;DHT22;39153;52.680;6.172;2023-08-06T01:13:58;14.80;99.90
53264;DHT22;39153;52.680;6.172;2023-08-06T01:16:25;14.70;99.90
53264;DHT22;39153;52.680;6.172;2023-08-06T01:18:51;14.80;99.90
53264;DHT22;39153;52.680;6.172;2023-08-06T01:21:17;14.70;99.90
53264;DHT22;39153;52.680;6.172;2023-08-06T01:23:43;14.70;99.90
53264;DHT22;39153;52.680;6.172;2023-08-06T01:26:26;14.70;99.90
53264;DHT22;39153;52.680;6.172;2023-08-06T01:31:43;14.80;99.90
53264;DHT22;39153;52.680;6.172;2023-08-06T01:34:13;14.60;99.90
53264;DHT22;39153;52.680;6.172;2023-08-06T01:36:42;14.60;99.90
53264;DHT22;39153;52.680;6.172;2023-08-06T01:39:08;14.80;99.90
53264;DHT22;39153;52.680;6.172;2023-08-06T01:41:34;14.70;99.90
53264;DHT22;39153;52.680;6.172;2023-08-06T01:44:00;14.80;99.90
53264;DHT22;39153;52.680;6.172;2023-08-06T01:46:25;14.50;99.90
53264;DHT22;39153;52.680;6.172;2023-08-06T01:48:51;14.50;99.90
53264;DHT22;39153;52.680;6.172;2023-08-06T01:51:17;14.60;99.90
53264;DHT22;39153;52.680;6.172;2023-08-06T01:53:42;14.70;99.90
53264;DHT22;39153;52.680;6.172;2023-08-06T01:56:08;14.70;99.90
53264;DHT22;39153;52.680;6.172;2023-08-06T01:58:34;14.60;99.90
53264;DHT22;39153;52.680;6.172;2023-08-06T02:01:01;14.60;99.90
53264;DHT22;39153;52.680;6.172;2023-08-06T02:03:27;14.50;99.90
53264;DHT22;39153;52.680;6.172;2023-08-06T02:05:52;14.70;99.90
53264;DHT22;39153;52.680;6.172;2023-08-06T02:08:18;14.70;99.90
53264;DHT22;39153;52.680;6.172;2023-08-06T02:10:45;14.60;99.90
53264;DHT22;39153;52.680;6.172;2023-08-06T02:13:11;14.70;99.90
53264;DHT22;39153;52.680;6.172;2023-08-06T02:15:45;14.50;99.90
53264;DHT22;39153;52.680;6.172;2023-08-06T02:18:13;14.70;99.90
53264;DHT22;39153;52.680;6.172;2023-08-06T02:20:40;14.70;99.90
53264;DHT22;39153;52.680;6.172;2023-08-06T02:23:06;14.40;99.90
53264;DHT22;39153;52.680;6.172;2023-08-06T02:25:32;14.50;99.90
53264;DHT22;39153;52.680;6.172;2023-08-06T02:27:58;14.70;99.90
53264;DHT22;39153;52.680;6.172;2023-08-06T02:30:23;14.50;99.90
53264;DHT22;39153;52.680;6.172;2023-08-06T02:32:49;14.60;99.90
53264;DHT22;39153;52.680;6.172;2023-08-06T02:35:15;14.50;99.90
53264;DHT22;39153;52.680;6.172;2023-08-06T02:37:41;14.50;99.90
53264;DHT22;39153;52.680;6.172;2023-08-06T02:40:07;14.60;99.90
53264;DHT22;39153;52.680;6.172;2023-08-06T02:42:33;14.40;99.90
53264;DHT22;39153;52.680;6.172;2023-08-06T02:44:58;14.60;99.90
53264;DHT22;39153;52.680;6.172;2023-08-06T02:47:24;14.60;99.90
53264;DHT22;39153;52.680;6.172;2023-08-06T02:49:50;14.40;99.90
53264;DHT22;39153;52.680;6.172;2023-08-06T02:52:15;14.70;99.90
53264;DHT22;39153;52.680;6.172;2023-08-06T02:54:42;14.60;99.90
53264;DHT22;39153;52.680;6.172;2023-08-06T02:57:07;14.50;99.90
53264;DHT22;39153;52.680;6.172;2023-08-06T02:59:33;14.40;99.90
53264;DHT22;39153;52.680;6.172;2023-08-06T03:01:59;14.40;99.90
53264;DHT22;39153;52.680;6.172;2023-08-06T03:04:25;14.30;99.90
53264;DHT22;39153;52.680;6.172;2023-08-06T03:06:51;14.40;99.90
53264;DHT22;39153;52.680;6.172;2023-08-06T03:09:17;14.60;99.90
53264;DHT22;39153;52.680;6.172;2023-08-06T03:11:43;14.60;99.90
53264;DHT22;39153;52.680;6.172;2023-08-06T03:14:09;14.40;99.90
53264;DHT22;39153;52.680;6.172;2023-08-06T03:16:35;14.40;99.90
53264;DHT22;39153;52.680;6.172;2023-08-06T03:19:01;14.40;99.90
53264;DHT22;39153;52.680;6.172;2023-08-06T03:21:27;14.50;99.90
53264;DHT22;39153;52.680;6.172;2023-08-06T03:23:53;14.30;99.90
53264;DHT22;39153;52.680;6.172;2023-08-06T03:26:18;14.40;99.90
53264;DHT22;39153;52.680;6.172;2023-08-06T03:28:44;14.60;99.90
53264;DHT22;39153;52.680;6.172;2023-08-06T03:31:10;14.40;99.90
53264;DHT22;39153;52.680;6.172;2023-08-06T03:33:35;14.40;99.90
53264;DHT22;39153;52.680;6.172;2023-08-06T03:36:01;14.40;99.90
53264;DHT22;39153;52.680;6.172;2023-08-06T03:38:27;14.50;99.90
53264;DHT22;39153;52.680;6.172;2023-08-06T03:40:53;14.60;99.90
53264;DHT22;39153;52.680;6.172;2023-08-06T03:43:19;14.50;99.90
53264;DHT22;39153;52.680;6.172;2023-08-06T03:45:45;14.40;99.90
53264;DHT22;39153;52.680;6.172;2023-08-06T03:48:11;14.60;99.90
53264;DHT22;39153;52.680;6.172;2023-08-06T03:50:36;14.40;99.90
53264;DHT22;39153;52.680;6.172;2023-08-06T03:53:03;14.60;99.90
53264;DHT22;39153;52.680;6.172;2023-08-06T03:55:29;14.50;99.90
53264;DHT22;39153;52.680;6.172;2023-08-06T03:57:54;14.60;99.90
53264;DHT22;39153;52.680;6.172;2023-08-06T04:00:20;14.30;99.90
53264;DHT22;39153;52.680;6.172;2023-08-06T04:02:46;14.50;99.90
53264;DHT22;39153;52.680;6.172;2023-08-06T04:05:12;14.60;99.90
53264;DHT22;39153;52.680;6.172;2023-08-06T04:07:37;14.40;99.90
53264;DHT22;39153;52.680;6.172;2023-08-06T04:10:04;14.40;99.90
53264;DHT22;39153;52.680;6.172;2023-08-06T04:12:30;14.40;99.90
53264;DHT22;39153;52.680;6.172;2023-08-06T04:15:00;14.30;99.90
53264;DHT22;39153;52.680;6.172;2023-08-06T04:17:26;14.40;99.90
53264;DHT22;39153;52.680;6.172;2023-08-06T04:19:53;14.50;99.90
53264;DHT22;39153;52.680;6.172;2023-08-06T04:22:20;14.60;99.90
53264;DHT22;39153;52.680;6.172;2023-08-06T04:24:46;14.50;99.90
53264;DHT22;39153;52.680;6.172;2023-08-06T04:27:13;14.70;99.90
53264;DHT22;39153;52.680;6.172;2023-08-06T04:29:39;14.60;99.90
53264;DHT22;39153;52.680;6.172;2023-08-06T04:32:07;14.50;99.90
53264;DHT22;39153;52.680;6.172;2023-08-06T04:34:33;14.40;99.90
53264;DHT22;39153;52.680;6.172;2023-08-06T04:37:00;14.60;99.90
53264;DHT22;39153;52.680;6.172;2023-08-06T04:39:26;14.60;99.90
53264;DHT22;39153;52.680;6.172;2023-08-06T04:41:53;14.60;99.90
53264;DHT22;39153;52.680;6.172;2023-08-06T04:44:18;14.60;99.90
53264;DHT22;39153;52.680;6.172;2023-08-06T04:46:44;14.40;99.90
53264;DHT22;39153;52.680;6.172;2023-08-06T04:49:10;14.50;99.90
53264;DHT22;39153;52.680;6.172;2023-08-06T04:51:35;14.70;99.90
53264;DHT22;39153;52.680;6.172;2023-08-06T04:54:01;14.70;99.90
53264;DHT22;39153;52.680;6.172;2023-08-06T04:56:27;14.70;99.90
53264;DHT22;39153;52.680;6.172;2023-08-06T04:58:53;14.50;99.90
53264;DHT22;39153;52.680;6.172;2023-08-06T05:01:18;14.50;99.90
53264;DHT22;39153;52.680;6.172;2023-08-06T05:03:44;14.50;99.90
53264;DHT22;39153;52.680;6.172;2023-08-06T05:06:10;14.40;99.90
53264;DHT22;39153;52.680;6.172;2023-08-06T05:08:36;14.70;99.90
53264;DHT22;39153;52.680;6.172;2023-08-06T05:11:02;14.50;99.90
53264;DHT22;39153;52.680;6.172;2023-08-06T05:13:27;14.70;99.90
53264;DHT22;39153;52.680;6.172;2023-08-06T05:15:54;14.50;99.90
53264;DHT22;39153;52.680;6.172;2023-08-06T05:18:20;14.50;99.90
53264;DHT22;39153;52.680;6.172;2023-08-06T05:20:46;14.70;99.90
53264;DHT22;39153;52.680;6.172;2023-08-06T05:23:11;14.80;99.90
53264;DHT22;39153;52.680;6.172;2023-08-06T05:25:38;14.50;99.90
53264;DHT22;39153;52.680;6.172;2023-08-06T05:28:04;14.60;99.90
53264;DHT22;39153;52.680;6.172;2023-08-06T05:30:30;14.70;99.90
53264;DHT22;39153;52.680;6.172;2023-08-06T05:32:56;14.60;99.90
53264;DHT22;39153;52.680;6.172;2023-08-06T05:35:22;14.90;99.90
53264;DHT22;39153;52.680;6.172;2023-08-06T05:37:49;14.90;99.90
53264;DHT22;39153;52.680;6.172;2023-08-06T05:40:15;14.60;99.90
53264;DHT22;39153;52.680;6.172;2023-08-06T05:42:41;14.60;99.90
53264;DHT22;39153;52.680;6.172;2023-08-06T05:45:07;14.80;99.90
53264;DHT22;39153;52.680;6.172;2023-08-06T05:47:33;15.00;99.90
53264;DHT22;39153;52.680;6.172;2023-08-06T05:49:59;15.00;99.90
53264;DHT22;39153;52.680;6.172;2023-08-06T05:52:24;15.00;99.90
53264;DHT22;39153;52.680;6.172;2023-08-06T05:54:50;14.80;99.90
53264;DHT22;39153;52.680;6.172;2023-08-06T05:57:16;14.80;99.90
53264;DHT22;39153;52.680;6.172;2023-08-06T05:59:42;15.00;99.90
53264;DHT22;39153;52.680;6.172;2023-08-06T06:02:08;14.80;99.90
53264;DHT22;39153;52.680;6.172;2023-08-06T06:04:34;14.80;99.90
53264;DHT22;39153;52.680;6.172;2023-08-06T06:06:59;14.80;99.90
53264;DHT22;39153;52.680;6.172;2023-08-06T06:09:25;14.80;99.90
53264;DHT22;39153;52.680;6.172;2023-08-06T06:11:51;15.10;99.90
53264;DHT22;39153;52.680;6.172;2023-08-06T06:14:17;14.90;99.90
53264;DHT22;39153;52.680;6.172;2023-08-06T06:16:44;14.90;99.90
53264;DHT22;39153;52.680;6.172;2023-08-06T06:19:09;14.90;99.90
53264;DHT22;39153;52.680;6.172;2023-08-06T06:21:35;14.90;99.90
53264;DHT22;39153;52.680;6.172;2023-08-06T06:24:01;15.00;99.90
53264;DHT22;39153;52.680;6.172;2023-08-06T06:26:26;15.00;99.90
53264;DHT22;39153;52.680;6.172;2023-08-06T06:28:52;14.80;99.90
53264;DHT22;39153;52.680;6.172;2023-08-06T06:31:18;15.00;99.90
53264;DHT22;39153;52.680;6.172;2023-08-06T06:33:47;14.80;99.90
53264;DHT22;39153;52.680;6.172;2023-08-06T06:36:12;15.00;99.90
53264;DHT22;39153;52.680;6.172;2023-08-06T06:38:38;14.90;99.90
53264;DHT22;39153;52.680;6.172;2023-08-06T06:41:04;15.00;99.90
53264;DHT22;39153;52.680;6.172;2023-08-06T06:43:29;15.10;99.90
53264;DHT22;39153;52.680;6.172;2023-08-06T06:45:59;15.20;99.90
53264;DHT22;39153;52.680;6.172;2023-08-06T06:48:29;15.30;99.90
53264;DHT22;39153;52.680;6.172;2023-08-06T06:50:55;15.20;99.90
53264;DHT22;39153;52.680;6.172;2023-08-06T06:53:22;15.10;99.90
53264;DHT22;39153;52.680;6.172;2023-08-06T06:56:03;15.20;99.90
53264;DHT22;39153;52.680;6.172;2023-08-06T06:58:30;15.10;99.90
53264;DHT22;39153;52.680;6.172;2023-08-06T07:00:56;15.30;99.90
53264;DHT22;39153;52.680;6.172;2023-08-06T07:03:21;15.10;99.90
53264;DHT22;39153;52.680;6.172;2023-08-06T07:05:49;15.40;99.90
53264;DHT22;39153;52.680;6.172;2023-08-06T07:08:15;15.30;99.90
53264;DHT22;39153;52.680;6.172;2023-08-06T07:10:42;15.20;99.90
53264;DHT22;39153;52.680;6.172;2023-08-06T07:13:08;15.10;99.90
53264;DHT22;39153;52.680;6.172;2023-08-06T07:15:34;15.30;99.90
53264;DHT22;39153;52.680;6.172;2023-08-06T07:18:00;15.30;99.90
53264;DHT22;39153;52.680;6.172;2023-08-06T07:20:26;15.50;99.90
53264;DHT22;39153;52.680;6.172;2023-08-06T07:22:54;15.20;99.90
53264;DHT22;39153;52.680;6.172;2023-08-06T07:25:20;15.40;99.90
53264;DHT22;39153;52.680;6.172;2023-08-06T07:27:46;15.20;99.90
53264;DHT22;39153;52.680;6.172;2023-08-06T07:30:11;15.40;99.90
53264;DHT22;39153;52.680;6.172;2023-08-06T07:32:37;15.20;99.90
53264;DHT22;39153;52.680;6.172;2023-08-06T07:35:03;15.50;99.90
53264;DHT22;39153;52.680;6.172;2023-08-06T07:37:29;15.30;99.90
53264;DHT22;39153;52.680;6.172;2023-08-06T07:39:55;15.60;99.90
53264;DHT22;39153;52.680;6.172;2023-08-06T07:42:22;15.40;99.90
53264;DHT22;39153;52.680;6.172;2023-08-06T07:44:54;15.40;99.90
53264;DHT22;39153;52.680;6.172;2023-08-06T07:47:20;15.70;99.90
53264;DHT22;39153;52.680;6.172;2023-08-06T07:49:46;15.40;99.90
53264;DHT22;39153;52.680;6.172;2023-08-06T07:52:12;15.50;99.90
53264;DHT22;39153;52.680;6.172;2023-08-06T07:54:37;15.70;99.90
53264;DHT22;39153;52.680;6.172;2023-08-06T07:57:03;15.40;99.90
53264;DHT22;39153;52.680;6.172;2023-08-06T07:59:29;15.50;99.90
53264;DHT22;39153;52.680;6.172;2023-08-06T08:01:55;15.60;99.90
53264;DHT22;39153;52.680;6.172;2023-08-06T08:04:20;15.50;99.90
53264;DHT22;39153;52.680;6.172;2023-08-06T08:06:46;15.50;99.90
53264;DHT22;39153;52.680;6.172;2023-08-06T08:09:13;15.80;99.90
53264;DHT22;39153;52.680;6.172;2023-08-06T08:11:39;15.90;99.90
53264;DHT22;39153;52.680;6.172;2023-08-06T08:14:05;15.60;99.90
53264;DHT22;39153;52.680;6.172;2023-08-06T08:16:31;15.70;99.90
53264;DHT22;39153;52.680;6.172;2023-08-06T08:18:57;15.90;99.90
53264;DHT22;39153;52.680;6.172;2023-08-06T08:21:23;15.90;99.90
53264;DHT22;39153;52.680;6.172;2023-08-06T08:23:50;16.00;99.90
53264;DHT22;39153;52.680;6.172;2023-08-06T08:26:16;16.00;99.90
53264;DHT22;39153;52.680;6.172;2023-08-06T08:28:41;16.00;99.90
53264;DHT22;39153;52.680;6.172;2023-08-06T08:31:11;16.30;99.90
53264;DHT22;39153;52.680;6.172;2023-08-06T08:33:40;16.30;99.90
53264;DHT22;39153;52.680;6.172;2023-08-06T08:36:05;16.40;99.90
53264;DHT22;39153;52.680;6.172;2023-08-06T08:38:31;16.30;99.90
53264;DHT22;39153;52.680;6.172;2023-08-06T08:40:57;16.40;99.90
53264;DHT22;39153;52.680;6.172;2023-08-06T08:43:23;16.60;99.90
53264;DHT22;39153;52.680;6.172;2023-08-06T08:45:53;16.60;99.90
53264;DHT22;39153;52.680;6.172;2023-08-06T08:48:24;16.70;99.90
53264;DHT22;39153;52.680;6.172;2023-08-06T08:50:51;16.40;99.90
53264;DHT22;39153;52.680;6.172;2023-08-06T08:53:17;16.50;99.90
53264;DHT22;39153;52.680;6.172;2023-08-06T08:55:46;16.50;99.90
53264;DHT22;39153;52.680;6.172;2023-08-06T08:58:13;16.80;99.90
53264;DHT22;39153;52.680;6.172;2023-08-06T09:00:42;16.70;99.90
53264;DHT22;39153;52.680;6.172;2023-08-06T09:03:08;16.90;99.90
53264;DHT22;39153;52.680;6.172;2023-08-06T09:05:34;17.10;99.90
53264;DHT22;39153;52.680;6.172;2023-08-06T09:08:03;17.00;99.90
53264;DHT22;39153;52.680;6.172;2023-08-06T09:10:29;17.20;99.90
53264;DHT22;39153;52.680;6.172;2023-08-06T09:12:57;17.50;99.90
53264;DHT22;39153;52.680;6.172;2023-08-06T09:15:26;17.40;99.90
53264;DHT22;39153;52.680;6.172;2023-08-06T09:17:53;17.50;99.90
53264;DHT22;39153;52.680;6.172;2023-08-06T09:20:19;17.60;99.90
53264;DHT22;39153;52.680;6.172;2023-08-06T09:22:45;17.50;99.90
53264;DHT22;39153;52.680;6.172;2023-08-06T09:25:21;17.50;99.90
53264;DHT22;39153;52.680;6.172;2023-08-06T09:27:48;17.70;99.90
53264;DHT22;39153;52.680;6.172;2023-08-06T09:30:29;17.70;99.90
53264;DHT22;39153;52.680;6.172;2023-08-06T09:32:55;17.70;99.90
53264;DHT22;39153;52.680;6.172;2023-08-06T09:35:21;17.60;99.90
53264;DHT22;39153;52.680;6.172;2023-08-06T09:37:47;17.80;99.90
53264;DHT22;39153;52.680;6.172;2023-08-06T09:40:29;17.90;99.90
53264;DHT22;39153;52.680;6.172;2023-08-06T09:42:55;17.90;99.90
53264;DHT22;39153;52.680;6.172;2023-08-06T09:45:21;18.10;99.90
53264;DHT22;39153;52.680;6.172;2023-08-06T09:47:50;18.00;99.90
53264;DHT22;39153;52.680;6.172;2023-08-06T09:50:20;18.10;99.90
53264;DHT22;39153;52.680;6.172;2023-08-06T09:52:47;18.10;99.90
53264;DHT22;39153;52.680;6.172;2023-08-06T09:55:14;18.10;99.90
53264;DHT22;39153;52.680;6.172;2023-08-06T09:57:41;18.40;99.90
53264;DHT22;39153;52.680;6.172;2023-08-06T10:00:10;18.60;99.90
53264;DHT22;39153;52.680;6.172;2023-08-06T10:02:40;18.60;99.90
53264;DHT22;39153;52.680;6.172;2023-08-06T10:05:07;18.90;99.90
53264;DHT22;39153;52.680;6.172;2023-08-06T10:07:34;19.00;99.90
53264;DHT22;39153;52.680;6.172;2023-08-06T10:10:00;19.00;99.90
53264;DHT22;39153;52.680;6.172;2023-08-06T10:12:30;19.10;99.90
53264;DHT22;39153;52.680;6.172;2023-08-06T10:15:00;19.10;99.90
53264;DHT22;39153;52.680;6.172;2023-08-06T10:17:26;19.00;99.90
53264;DHT22;39153;52.680;6.172;2023-08-06T10:19:53;19.10;99.90
53264;DHT22;39153;52.680;6.172;2023-08-06T10:22:21;19.10;99.90
53264;DHT22;39153;52.680;6.172;2023-08-06T10:24:57;19.20;99.90
53264;DHT22;39153;52.680;6.172;2023-08-06T10:30:22;19.30;99.90
53264;DHT22;39153;52.680;6.172;2023-08-06T10:32:55;19.30;99.90
53264;DHT22;39153;52.680;6.172;2023-08-06T10:35:41;19.30;99.90
53264;DHT22;39153;52.680;6.172;2023-08-06T10:43:35;19.60;99.90
53264;DHT22;39153;52.680;6.172;2023-08-06T10:46:08;19.80;99.90
53264;DHT22;39153;52.680;6.172;2023-08-06T10:51:09;19.70;99.90
53264;DHT22;39153;52.680;6.172;2023-08-06T10:53:36;19.60;99.90
53264;DHT22;39153;52.680;6.172;2023-08-06T10:56:02;19.60;99.90
53264;DHT22;39153;52.680;6.172;2023-08-06T10:58:37;19.70;99.90
53264;DHT22;39153;52.680;6.172;2023-08-06T11:01:02;19.70;99.90
53264;DHT22;39153;52.680;6.172;2023-08-06T11:03:28;19.70;99.90
53264;DHT22;39153;52.680;6.172;2023-08-06T11:05:54;19.70;99.90
53264;DHT22;39153;52.680;6.172;2023-08-06T11:08:25;19.70;99.90
53264;DHT22;39153;52.680;6.172;2023-08-06T11:10:50;19.50;99.90
53264;DHT22;39153;52.680;6.172;2023-08-06T11:13:20;19.50;99.90
53264;DHT22;39153;52.680;6.172;2023-08-06T11:15:46;19.60;99.90
53264;DHT22;39153;52.680;6.172;2023-08-06T11:18:12;19.70;99.90
53264;DHT22;39153;52.680;6.172;2023-08-06T11:20:39;19.90;99.90
53264;DHT22;39153;52.680;6.172;2023-08-06T11:23:05;19.90;99.90
53264;DHT22;39153;52.680;6.172;2023-08-06T11:25:35;20.00;99.90
53264;DHT22;39153;52.680;6.172;2023-08-06T11:28:01;19.80;99.90
53264;DHT22;39153;52.680;6.172;2023-08-06T11:30:27;19.90;99.90
53264;DHT22;39153;52.680;6.172;2023-08-06T11:32:53;19.80;99.90
53264;DHT22;39153;52.680;6.172;2023-08-06T11:35:18;19.80;99.90
53264;DHT22;39153;52.680;6.172;2023-08-06T11:37:47;19.80;99.90
53264;DHT22;39153;52.680;6.172;2023-08-06T11:40:15;19.80;99.90
53264;DHT22;39153;52.680;6.172;2023-08-06T11:42:41;19.70;99.90
53264;DHT22;39153;52.680;6.172;2023-08-06T11:45:08;19.70;99.90
53264;DHT22;39153;52.680;6.172;2023-08-06T11:47:38;19.60;99.90
53264;DHT22;39153;52.680;6.172;2023-08-06T11:50:06;19.60;99.90
53264;DHT22;39153;52.680;6.172;2023-08-06T11:52:32;19.50;99.90
53264;DHT22;39153;52.680;6.172;2023-08-06T11:55:01;19.50;99.90
53264;DHT22;39153;52.680;6.172;2023-08-06T11:57:33;19.50;99.90
53264;DHT22;39153;52.680;6.172;2023-08-06T12:00:06;19.50;99.90
53264;DHT22;39153;52.680;6.172;2023-08-06T12:02:33;19.50;99.90
53264;DHT22;39153;52.680;6.172;2023-08-06T12:05:17;19.50;99.90
53264;DHT22;39153;52.680;6.172;2023-08-06T12:07:45;19.60;99.90
53264;DHT22;39153;52.680;6.172;2023-08-06T12:10:12;19.60;99.90
53264;DHT22;39153;52.680;6.172;2023-08-06T12:12:38;19.60;99.90
53264;DHT22;39153;52.680;6.172;2023-08-06T12:15:05;19.60;99.90
53264;DHT22;39153;52.680;6.172;2023-08-06T12:17:34;19.70;99.90
53264;DHT22;39153;52.680;6.172;2023-08-06T12:20:00;19.70;99.90
53264;DHT22;39153;52.680;6.172;2023-08-06T12:22:26;19.70;99.90
53264;DHT22;39153;52.680;6.172;2023-08-06T12:24:52;19.80;99.90
53264;DHT22;39153;52.680;6.172;2023-08-06T12:27:18;19.80;99.90
53264;DHT22;39153;52.680;6.172;2023-08-06T12:29:47;19.80;99.90
53264;DHT22;39153;52.680;6.172;2023-08-06T12:32:13;19.90;99.90
53264;DHT22;39153;52.680;6.172;2023-08-06T12:34:40;19.80;99.90
53264;DHT22;39153;52.680;6.172;2023-08-06T12:37:07;19.80;99.90
53264;DHT22;39153;52.680;6.172;2023-08-06T12:39:33;19.80;99.90
53264;DHT22;39153;52.680;6.172;2023-08-06T12:42:03;19.80;99.90
53264;DHT22;39153;52.680;6.172;2023-08-06T12:44:30;19.70;99.90
53264;DHT22;39153;52.680;6.172;2023-08-06T12:46:56;19.50;99.90
53264;DHT22;39153;52.680;6.172;2023-08-06T12:49:22;19.40;99.90
53264;DHT22;39153;52.680;6.172;2023-08-06T12:51:49;19.40;99.90
53264;DHT22;39153;52.680;6.172;2023-08-06T12:54:18;19.20;99.90
53264;DHT22;39153;52.680;6.172;2023-08-06T12:56:45;19.10;99.90
53264;DHT22;39153;52.680;6.172;2023-08-06T12:59:11;19.00;99.90
53264;DHT22;39153;52.680;6.172;2023-08-06T13:01:38;18.90;99.90
53264;DHT22;39153;52.680;6.172;2023-08-06T13:04:04;18.80;99.90
53264;DHT22;39153;52.680;6.172;2023-08-06T13:06:30;18.70;99.90
53264;DHT22;39153;52.680;6.172;2023-08-06T13:08:56;18.50;99.90
53264;DHT22;39153;52.680;6.172;2023-08-06T13:11:22;18.40;99.90
53264;DHT22;39153;52.680;6.172;2023-08-06T13:13:48;18.30;99.90
53264;DHT22;39153;52.680;6.172;2023-08-06T13:16:14;18.30;99.90
53264;DHT22;39153;52.680;6.172;2023-08-06T13:18:39;18.30;99.90
53264;DHT22;39153;52.680;6.172;2023-08-06T13:21:05;18.20;99.90
53264;DHT22;39153;52.680;6.172;2023-08-06T13:23:31;18.20;99.90
53264;DHT22;39153;52.680;6.172;2023-08-06T13:25:56;18.10;99.90
53264;DHT22;39153;52.680;6.172;2023-08-06T13:28:22;18.10;99.90
53264;DHT22;39153;52.680;6.172;2023-08-06T13:30:48;18.10;99.90
53264;DHT22;39153;52.680;6.172;2023-08-06T13:33:14;18.00;99.90
53264;DHT22;39153;52.680;6.172;2023-08-06T13:35:39;18.00;99.90
53264;DHT22;39153;52.680;6.172;2023-08-06T13:38:06;18.10;99.90
53264;DHT22;39153;52.680;6.172;2023-08-06T13:40:33;18.10;99.90
53264;DHT22;39153;52.680;6.172;2023-08-06T13:42:59;18.10;99.90
53264;DHT22;39153;52.680;6.172;2023-08-06T13:45:25;18.00;99.90
53264;DHT22;39153;52.680;6.172;2023-08-06T13:47:51;18.00;99.90
53264;DHT22;39153;52.680;6.172;2023-08-06T13:50:17;17.90;99.90
53264;DHT22;39153;52.680;6.172;2023-08-06T13:52:43;17.90;99.90
53264;DHT22;39153;52.680;6.172;2023-08-06T13:55:08;17.90;99.90
53264;DHT22;39153;52.680;6.172;2023-08-06T13:57:35;17.90;99.90
53264;DHT22;39153;52.680;6.172;2023-08-06T14:00:01;17.90;99.90
53264;DHT22;39153;52.680;6.172;2023-08-06T14:02:27;17.80;99.90
53264;DHT22;39153;52.680;6.172;2023-08-06T14:04:53;17.70;99.90
53264;DHT22;39153;52.680;6.172;2023-08-06T14:07:19;17.40;99.90
53264;DHT22;39153;52.680;6.172;2023-08-06T14:09:45;17.30;99.90
53264;DHT22;39153;52.680;6.172;2023-08-06T14:12:13;17.30;99.90
53264;DHT22;39153;52.680;6.172;2023-08-06T14:14:39;17.10;99.90
53264;DHT22;39153;52.680;6.172;2023-08-06T14:17:05;17.00;99.90
53264;DHT22;39153;52.680;6.172;2023-08-06T14:19:31;16.70;99.90
53264;DHT22;39153;52.680;6.172;2023-08-06T14:21:56;16.70;99.90
53264;DHT22;39153;52.680;6.172;2023-08-06T14:24:22;16.60;99.90
53264;DHT22;39153;52.680;6.172;2023-08-06T14:26:48;16.70;99.90
53264;DHT22;39153;52.680;6.172;2023-08-06T14:29:14;16.50;99.90
53264;DHT22;39153;52.680;6.172;2023-08-06T14:31:40;16.60;99.90
53264;DHT22;39153;52.680;6.172;2023-08-06T14:34:06;16.50;99.90
53264;DHT22;39153;52.680;6.172;2023-08-06T14:36:32;16.50;99.90
53264;DHT22;39153;52.680;6.172;2023-08-06T14:38:58;16.80;99.90
53264;DHT22;39153;52.680;6.172;2023-08-06T14:41:24;16.90;99.90
53264;DHT22;39153;52.680;6.172;2023-08-06T14:43:50;16.90;99.90
53264;DHT22;39153;52.680;6.172;2023-08-06T14:46:16;16.90;99.90
53264;DHT22;39153;52.680;6.172;2023-08-06T14:48:42;16.90;99.90
53264;DHT22;39153;52.680;6.172;2023-08-06T14:51:10;16.80;99.90
53264;DHT22;39153;52.680;6.172;2023-08-06T14:53:35;17.00;99.90
53264;DHT22;39153;52.680;6.172;2023-08-06T14:56:01;16.90;99.90
53264;DHT22;39153;52.680;6.172;2023-08-06T14:58:27;16.90;99.90
53264;DHT22;39153;52.680;6.172;2023-08-06T15:00:53;16.90;99.90
53264;DHT22;39153;52.680;6.172;2023-08-06T15:03:18;16.80;99.90
53264;DHT22;39153;52.680;6.172;2023-08-06T15:05:47;16.70;99.90
53264;DHT22;39153;52.680;6.172;2023-08-06T15:08:13;17.00;99.90
53264;DHT22;39153;52.680;6.172;2023-08-06T15:10:38;16.70;99.90
53264;DHT22;39153;52.680;6.172;2023-08-06T15:13:04;16.90;99.90
53264;DHT22;39153;52.680;6.172;2023-08-06T15:15:30;16.90;99.90
53264;DHT22;39153;52.680;6.172;2023-08-06T15:17:56;16.80;99.90
53264;DHT22;39153;52.680;6.172;2023-08-06T15:20:23;16.80;99.90
53264;DHT22;39153;52.680;6.172;2023-08-06T15:22:49;16.70;99.90
53264;DHT22;39153;52.680;6.172;2023-08-06T15:25:14;17.00;99.90
53264;DHT22;39153;52.680;6.172;2023-08-06T15:27:40;17.00;99.90
53264;DHT22;39153;52.680;6.172;2023-08-06T15:30:07;16.80;99.90
53264;DHT22;39153;52.680;6.172;2023-08-06T15:32:33;17.00;99.90
53264;DHT22;39153;52.680;6.172;2023-08-06T15:34:58;17.00;99.90
53264;DHT22;39153;52.680;6.172;2023-08-06T15:37:24;17.10;99.90
53264;DHT22;39153;52.680;6.172;2023-08-06T15:39:52;17.00;99.90
53264;DHT22;39153;52.680;6.172;2023-08-06T15:42:18;16.90;99.90
53264;DHT22;39153;52.680;6.172;2023-08-06T15:44:43;17.00;99.90